Saint Martins, Missouri
Current Conditions -  °F | °C
As of 1:53 PM on Thursday 30 Oct 2014 (Local Time) from KJEF Reporting Station
Light Rain Light Rain  
Wind Chill: 45°   Ceiling: 6500
Heat Index: 49°   Visibility: 7mi
Dew Point: 44°   Wind: 9mph
Humidity: 83%   Direction: 130°SE
Pressure: 29.99"   Gusts: NA
Location:  38.5621°N, 92.2945°W
Report Text: KJEF 301853Z 13008KT 7SM -RA BKN065 OVC080 09/07 A2999 RMK AO2 LTG DSNT SW SLP148 P0007 T00940067
Loading
Personal Weather Stations






























Interactive Weather Map
Tropical Storm Tracking
New forecast layout! Learn more

10-Day Weather Forecast

Advertisements
Track Severe Weather on mobile